Time;durP1;ratioP1;P1;durP2;ratioP2;P2;SDS_P1;SDS_P2;PMS_P1;PMS_P2;Temp;Humidity;BMP_temperature;BMP_pressure;BME280_temperature;BME280_humidity;BME280_pressure;Samples;Min_cycle;Max_cycle;Signal;HPM_P1;HPM_P2
2023/04/27 00:03:04;;;;;;;;;;;16.20;54.30;;;;;;10233139;28;94242;-68
2023/04/27 00:08:07;;;;;;;;;;;16.20;54.30;;;;;;10251195;28;94091;-67
2023/04/27 00:13:09;;;;;;;;;;;16.10;54.20;;;;;;10250705;28;94124;-68
2023/04/27 00:18:11;;;;;;;;;;;16.10;54.30;;;;;;10251138;28;95298;-68
2023/04/27 00:23:12;;;;;;;;;;;16.10;54.20;;;;;;10233686;28;92706;-67
2023/04/27 00:28:14;;;;;;;;;;;16.10;54.30;;;;;;10233843;28;93809;-67
2023/04/27 00:33:16;;;;;;;;;;;16.10;54.20;;;;;;10250124;28;93668;-67
2023/04/27 00:38:17;;;;;;;;;;;16.10;54.40;;;;;;10247804;28;96338;-68
2023/04/27 00:43:19;;;;;;;;;;;16.00;54.30;;;;;;10233050;28;93403;-67
2023/04/27 00:48:21;;;;;;;;;;;16.00;54.20;;;;;;10232165;28;94188;-68
2023/04/27 00:53:23;;;;;;;;;;;16.00;54.30;;;;;;10249892;28;92558;-68
2023/04/27 00:58:25;;;;;;;;;;;16.00;54.30;;;;;;10250414;28;93674;-67
2023/04/27 01:03:26;;;;;;;;;;;16.00;54.30;;;;;;10249921;28;94006;-67
2023/04/27 01:08:29;;;;;;;;;;;16.00;54.30;;;;;;10251690;28;93243;-67
2023/04/27 01:13:31;;;;;;;;;;;16.00;54.30;;;;;;10251124;28;92694;-68
2023/04/27 01:18:33;;;;;;;;;;;15.90;54.20;;;;;;10232428;28;93688;-67
2023/04/27 01:23:35;;;;;;;;;;;15.90;54.30;;;;;;10250022;28;93513;-68
2023/04/27 01:28:37;;;;;;;;;;;15.90;54.20;;;;;;10248287;28;95463;-68
2023/04/27 01:33:39;;;;;;;;;;;15.90;54.20;;;;;;10250274;28;94233;-67
2023/04/27 01:38:41;;;;;;;;;;;15.90;54.30;;;;;;10249076;28;93245;-68
2023/04/27 01:43:43;;;;;;;;;;;15.90;54.30;;;;;;10248376;28;93908;-68
2023/04/27 01:48:45;;;;;;;;;;;15.90;54.20;;;;;;10248186;28;94278;-68
2023/04/27 01:53:46;;;;;;;;;;;15.90;54.20;;;;;;10248477;28;94481;-69
2023/04/27 01:58:48;;;;;;;;;;;15.80;54.20;;;;;;10246515;28;93543;-68
2023/04/27 02:03:50;;;;;;;;;;;15.80;54.20;;;;;;10248350;28;92747;-68
2023/04/27 02:08:52;;;;;;;;;;;15.80;54.20;;;;;;10246699;28;92937;-68
2023/04/27 02:13:54;;;;;;;;;;;15.80;54.20;;;;;;10247262;28;94215;-68
2023/04/27 02:18:56;;;;;;;;;;;15.80;54.20;;;;;;10245905;28;97115;-68
2023/04/27 02:23:57;;;;;;;;;;;15.80;54.30;;;;;;10228885;28;93950;-68
2023/04/27 02:28:59;;;;;;;;;;;15.80;54.20;;;;;;10248040;28;93877;-68
2023/04/27 02:34:02;;;;;;;;;;;15.80;54.20;;;;;;10246687;28;93673;-68
2023/04/27 02:39:04;;;;;;;;;;;15.80;54.20;;;;;;10245888;28;94528;-67
2023/04/27 02:44:06;;;;;;;;;;;15.80;54.20;;;;;;10253576;28;94117;-68
2023/04/27 02:49:07;;;;;;;;;;;15.80;54.10;;;;;;10235046;28;96307;-68
2023/04/27 02:54:09;;;;;;;;;;;15.70;54.20;;;;;;10253892;28;92094;-67
2023/04/27 02:59:11;;;;;;;;;;;15.80;54.20;;;;;;10253502;28;93510;-68
2023/04/27 03:04:13;;;;;;;;;;;15.80;54.00;;;;;;10253124;28;93558;-67
2023/04/27 03:09:16;;;;;;;;;;;15.80;54.00;;;;;;10251384;28;96880;-68
2023/04/27 03:14:18;;;;;;;;;;;15.80;54.10;;;;;;10235744;28;93143;-68
2023/04/27 03:19:19;;;;;;;;;;;15.80;53.90;;;;;;10251341;28;93493;-68
2023/04/27 03:24:24;;;;;;;;;;;15.70;53.90;;;;;;10252871;28;94615;-68
2023/04/27 03:29:25;;;;;;;;;;;15.70;53.90;;;;;;10235688;28;94648;-68
2023/04/27 03:34:27;;;;;;;;;;;15.70;53.80;;;;;;10234094;28;93795;-68
2023/04/27 03:39:29;;;;;;;;;;;15.70;53.70;;;;;;10250849;28;93915;-68
2023/04/27 03:44:32;;;;;;;;;;;15.70;53.80;;;;;;10252452;28;93053;-68
2023/04/27 05:07:58;;;;;;;;;;;16.40;52.70;;;;;;10198179;28;96873;-67
2023/04/27 05:13:00;;;;;;;;;;;16.50;52.40;;;;;;10237565;28;94335;-67
2023/04/27 05:18:02;;;;;;;;;;;16.60;52.20;;;;;;10248639;28;93588;-67
2023/04/27 05:23:04;;;;;;;;;;;16.60;51.90;;;;;;10249681;28;94290;-67
2023/04/27 05:28:05;;;;;;;;;;;16.60;52.10;;;;;;10248822;28;93888;-68
2023/04/27 05:33:07;;;;;;;;;;;16.60;52.10;;;;;;10230833;28;93650;-67
2023/04/27 05:38:09;;;;;;;;;;;16.50;52.10;;;;;;10231530;28;94648;-68
2023/04/27 05:43:11;;;;;;;;;;;16.50;52.30;;;;;;10247628;28;92768;-67
2023/04/27 05:48:13;;;;;;;;;;;16.50;52.30;;;;;;10233644;28;93951;-68
2023/04/27 05:53:16;;;;;;;;;;;16.60;52.30;;;;;;10205173;28;94059;-67
2023/04/27 05:58:17;;;;;;;;;;;16.60;52.30;;;;;;10204800;28;96984;-66
2023/04/27 06:03:19;;;;;;;;;;;16.50;52.30;;;;;;10205286;28;94464;-67
2023/04/27 06:08:21;;;;;;;;;;;16.50;52.40;;;;;;10189518;28;93445;-68
2023/04/27 06:13:24;;;;;;;;;;;16.50;52.50;;;;;;10204800;28;94037;-68
2023/04/27 06:18:26;;;;;;;;;;;16.40;52.50;;;;;;10187688;28;93555;-67
2023/04/27 06:23:27;;;;;;;;;;;16.40;52.60;;;;;;10205779;28;93659;-68
2023/04/27 06:28:29;;;;;;;;;;;16.40;52.60;;;;;;10204765;28;93493;-67
2023/04/27 06:33:31;;;;;;;;;;;16.30;52.70;;;;;;10206790;28;96754;-67
2023/04/27 06:38:33;;;;;;;;;;;16.30;52.70;;;;;;10188617;28;93837;-67
2023/04/27 06:43:34;;;;;;;;;;;16.30;52.70;;;;;;10205921;28;93431;-67
2023/04/27 06:48:36;;;;;;;;;;;16.30;52.70;;;;;;10195809;28;98246;-68
2023/04/27 06:53:38;;;;;;;;;;;16.30;52.80;;;;;;10205290;28;93056;-68
2023/04/27 06:58:40;;;;;;;;;;;16.30;52.80;;;;;;10206225;28;93605;-67
2023/04/27 07:03:41;;;;;;;;;;;16.40;52.90;;;;;;10207055;28;93549;-67
2023/04/27 07:08:44;;;;;;;;;;;16.30;52.80;;;;;;10206210;28;93445;-68
2023/04/27 07:13:46;;;;;;;;;;;16.30;52.90;;;;;;10189805;28;94522;-68
2023/04/27 07:18:48;;;;;;;;;;;16.30;52.90;;;;;;10188729;28;93429;-67
2023/04/27 07:23:49;;;;;;;;;;;16.30;52.90;;;;;;10205916;28;93910;-66
2023/04/27 07:28:51;;;;;;;;;;;16.30;53.00;;;;;;10211783;28;94501;-66
2023/04/27 07:33:54;;;;;;;;;;;16.30;53.00;;;;;;10211617;28;94578;-67
2023/04/27 07:38:57;;;;;;;;;;;16.30;53.30;;;;;;10191965;28;98916;-65
2023/04/27 07:43:59;;;;;;;;;;;16.30;53.70;;;;;;10211830;28;92699;-69
2023/04/27 07:49:01;;;;;;;;;;;16.30;51.30;;;;;;10210354;28;93717;-65
2023/04/27 07:54:03;;;;;;;;;;;16.20;51.40;;;;;;10210436;28;93565;-66
2023/04/27 07:59:04;;;;;;;;;;;16.30;51.80;;;;;;10193876;28;94406;-66
2023/04/27 08:04:06;;;;;;;;;;;16.20;51.90;;;;;;10211581;28;94583;-66
2023/04/27 08:09:08;;;;;;;;;;;16.20;52.30;;;;;;10210868;28;93522;-66
2023/04/27 08:14:12;;;;;;;;;;;16.20;52.70;;;;;;10210780;28;93059;-67
2023/04/27 08:19:14;;;;;;;;;;;16.20;52.80;;;;;;10209472;28;94664;-66
2023/04/27 08:24:16;;;;;;;;;;;16.20;52.70;;;;;;10209911;28;94487;-67
2023/04/27 08:29:18;;;;;;;;;;;16.20;52.80;;;;;;10206451;28;96025;-67
2023/04/27 08:34:28;;;;;;;;;;;16.20;52.70;;;;;;10211441;28;94766;-67
2023/04/27 08:39:30;;;;;;;;;;;16.20;52.60;;;;;;10209214;28;94444;-67
2023/04/27 08:44:32;;;;;;;;;;;16.20;52.80;;;;;;10191983;28;92645;-67
2023/04/27 08:49:37;;;;;;;;;;;16.20;52.70;;;;;;10208839;28;94501;-67
2023/04/27 08:54:38;;;;;;;;;;;16.20;52.80;;;;;;10209255;28;93398;-67
2023/04/27 08:59:40;;;;;;;;;;;16.20;52.70;;;;;;10222829;28;93562;-68
2023/04/27 09:04:42;;;;;;;;;;;16.20;52.70;;;;;;10192669;28;93643;-67
2023/04/27 09:09:44;;;;;;;;;;;16.10;52.60;;;;;;10223893;28;93728;-67
2023/04/27 09:14:55;;;;;;;;;;;16.20;52.60;;;;;;10207481;28;94467;-67
2023/04/27 09:20:12;;;;;;;;;;;16.10;52.60;;;;;;10188662;28;95834;-67
2023/04/27 09:25:27;;;;;;;;;;;16.10;52.50;;;;;;10189835;28;93493;-67
2023/04/27 09:30:29;;;;;;;;;;;16.20;52.30;;;;;;10190841;28;94481;-67
2023/04/27 09:35:31;;;;;;;;;;;16.20;52.40;;;;;;10191282;28;94451;-67
2023/04/27 09:40:33;;;;;;;;;;;16.20;52.40;;;;;;10208114;28;94600;-67
2023/04/27 09:45:36;;;;;;;;;;;16.20;52.30;;;;;;10208424;28;94519;-68
2023/04/27 09:50:38;;;;;;;;;;;16.30;52.60;;;;;;10206306;28;93279;-67
2023/04/27 09:55:42;;;;;;;;;;;16.30;52.60;;;;;;10207700;28;91862;-68
2023/04/27 10:00:50;;;;;;;;;;;16.30;52.40;;;;;;10208152;28;94383;-68
2023/04/27 10:06:11;;;;;;;;;;;16.30;52.40;;;;;;10207281;28;94161;-68
2023/04/27 10:11:14;;;;;;;;;;;16.40;52.60;;;;;;10187588;28;97313;-68
2023/04/27 10:16:16;;;;;;;;;;;16.40;52.50;;;;;;10206433;28;93265;-68
2023/04/27 10:21:18;;;;;;;;;;;16.50;52.70;;;;;;10207891;28;94858;-68
2023/04/27 10:26:23;;;;;;;;;;;16.50;52.70;;;;;;10206073;28;92565;-68
2023/04/27 10:31:26;;;;;;;;;;;16.60;52.50;;;;;;10173935;28;93391;-68
2023/04/27 10:36:33;;;;;;;;;;;16.60;52.40;;;;;;10206594;28;93506;-68
2023/04/27 10:41:35;;;;;;;;;;;16.70;52.50;;;;;;10189280;28;94448;-68
2023/04/27 10:46:48;;;;;;;;;;;16.70;52.40;;;;;;10206957;28;92877;-68
2023/04/27 10:51:50;;;;;;;;;;;16.70;52.40;;;;;;10226180;28;93533;-68
2023/04/27 10:56:51;;;;;;;;;;;16.70;52.40;;;;;;10246549;28;94530;-68
2023/04/27 11:01:53;;;;;;;;;;;16.70;52.40;;;;;;10247120;28;96792;-68
2023/04/27 11:06:57;;;;;;;;;;;16.80;52.40;;;;;;10266297;28;114028;-68
2023/04/27 11:12:00;;;;;;;;;;;16.70;52.00;;;;;;10251473;28;92976;-68
2023/04/27 11:17:03;;;;;;;;;;;16.70;52.20;;;;;;10252453;28;94491;-68
2023/04/27 11:22:05;;;;;;;;;;;16.70;52.20;;;;;;10251993;28;93449;-68
2023/04/27 11:27:07;;;;;;;;;;;16.70;52.20;;;;;;10251769;28;94047;-68
2023/04/27 11:32:17;;;;;;;;;;;16.70;52.20;;;;;;10253009;28;93464;-68
2023/04/27 11:37:21;;;;;;;;;;;16.70;51.80;;;;;;10253737;28;93385;-68
2023/04/27 11:42:24;;;;;;;;;;;16.70;51.80;;;;;;10252049;28;93320;-68
2023/04/27 11:47:27;;;;;;;;;;;16.60;51.70;;;;;;10248616;28;93677;-68
2023/04/27 11:52:30;;;;;;;;;;;16.60;52.80;;;;;;10208608;28;96532;-68
2023/04/27 11:57:33;;;;;;;;;;;16.60;52.20;;;;;;10211018;28;94300;-68
2023/04/27 12:02:34;;;;;;;;;;;16.60;52.30;;;;;;10211133;28;92909;-68
2023/04/27 12:07:37;;;;;;;;;;;16.60;52.30;;;;;;10210440;28;93354;-68
2023/04/27 12:12:38;;;;;;;;;;;16.60;52.30;;;;;;10210244;28;92889;-68
2023/04/27 12:17:40;;;;;;;;;;;16.60;52.50;;;;;;10210806;28;93824;-68
2023/04/27 12:22:42;;;;;;;;;;;16.60;52.50;;;;;;10211676;28;94657;-68
2023/04/27 12:27:46;;;;;;;;;;;16.60;52.60;;;;;;10211292;28;93099;-68
2023/04/27 12:32:48;;;;;;;;;;;16.60;52.60;;;;;;10210193;28;93421;-68
2023/04/27 12:37:51;;;;;;;;;;;16.60;52.60;;;;;;10210488;28;93607;-68
2023/04/27 12:42:52;;;;;;;;;;;16.60;52.70;;;;;;10207555;28;95918;-68
2023/04/27 12:47:54;;;;;;;;;;;16.60;52.60;;;;;;10209689;28;93759;-68
2023/04/27 12:53:04;;;;;;;;;;;16.60;52.30;;;;;;10192493;28;94519;-68
2023/04/27 12:58:06;;;;;;;;;;;16.60;52.60;;;;;;10208725;28;93893;-68
2023/04/27 13:03:08;;;;;;;;;;;16.60;52.50;;;;;;10224728;28;92844;-68
2023/04/27 13:08:10;;;;;;;;;;;16.60;52.70;;;;;;10207927;28;93513;-68
2023/04/27 13:13:12;;;;;;;;;;;16.60;52.60;;;;;;10210142;28;93868;-69
2023/04/27 13:18:14;;;;;;;;;;;16.60;52.80;;;;;;10209874;28;93825;-68
2023/04/27 13:23:16;;;;;;;;;;;16.60;52.70;;;;;;10208451;28;94539;-68
2023/04/27 13:28:18;;;;;;;;;;;16.60;52.80;;;;;;10208526;28;93678;-69
2023/04/27 13:33:19;;;;;;;;;;;16.60;52.90;;;;;;10189038;28;97005;-68
2023/04/27 13:38:24;;;;;;;;;;;16.60;52.90;;;;;;10208505;28;93265;-68
2023/04/27 13:43:26;;;;;;;;;;;16.60;52.90;;;;;;10191328;28;94661;-69
2023/04/27 13:48:28;;;;;;;;;;;16.60;52.80;;;;;;10209562;28;94595;-68
2023/04/27 13:53:29;;;;;;;;;;;16.60;52.90;;;;;;10207895;28;94483;-68
2023/04/27 13:58:32;;;;;;;;;;;16.60;52.90;;;;;;10208388;28;93355;-68
2023/04/27 14:03:34;;;;;;;;;;;16.60;53.00;;;;;;10208546;28;94097;-68
2023/04/27 14:08:36;;;;;;;;;;;16.60;53.10;;;;;;10191170;28;92960;-68
2023/04/27 14:13:38;;;;;;;;;;;16.60;54.20;;;;;;10207859;28;93763;-68
2023/04/27 14:18:40;;;;;;;;;;;16.60;53.20;;;;;;10207359;28;93623;-68
2023/04/27 14:23:42;;;;;;;;;;;16.60;53.30;;;;;;10186992;28;95625;-68
2023/04/27 14:28:44;;;;;;;;;;;16.60;53.40;;;;;;10207530;28;93452;-68
2023/04/27 14:33:46;;;;;;;;;;;16.60;53.50;;;;;;10189617;28;93509;-68
2023/04/27 14:38:48;;;;;;;;;;;16.60;53.50;;;;;;10214692;28;93285;-68
2023/04/27 14:43:50;;;;;;;;;;;16.60;53.50;;;;;;10213763;28;93701;-68
2023/04/27 14:48:52;;;;;;;;;;;16.60;53.50;;;;;;10213376;28;93492;-68
2023/04/27 14:53:54;;;;;;;;;;;16.60;53.60;;;;;;10214179;28;93460;-68
2023/04/27 14:58:56;;;;;;;;;;;16.60;53.60;;;;;;10214489;28;92611;-68
2023/04/27 15:03:58;;;;;;;;;;;16.60;53.60;;;;;;10214985;28;93083;-68
2023/04/27 15:08:59;;;;;;;;;;;16.60;53.70;;;;;;10213390;28;94398;-67
2023/04/27 15:14:01;;;;;;;;;;;16.60;53.70;;;;;;10210443;28;96487;-68
2023/04/27 15:19:03;;;;;;;;;;;16.70;53.90;;;;;;10212491;28;93529;-68
2023/04/27 15:24:05;;;;;;;;;;;16.80;54.00;;;;;;10195247;28;93568;-68
2023/04/27 15:29:06;;;;;;;;;;;17.10;53.80;;;;;;10213221;28;93562;-68
2023/04/27 15:34:08;;;;;;;;;;;17.50;53.30;;;;;;10211813;28;93544;-68
2023/04/27 15:39:10;;;;;;;;;;;17.80;52.80;;;;;;10212663;28;94424;-68
2023/04/27 15:44:12;;;;;;;;;;;17.90;52.40;;;;;;10212426;28;92512;-68
2023/04/27 15:49:14;;;;;;;;;;;18.10;52.10;;;;;;10212429;28;92487;-68
2023/04/27 15:54:16;;;;;;;;;;;18.30;52.00;;;;;;10212346;28;94601;-68
2023/04/27 15:59:18;;;;;;;;;;;18.30;52.10;;;;;;10211467;28;93511;-68
2023/04/27 16:04:20;;;;;;;;;;;18.20;52.10;;;;;;10209068;28;96967;-68
2023/04/27 16:09:21;;;;;;;;;;;18.10;52.30;;;;;;10211175;28;93469;-68
2023/04/27 16:14:24;;;;;;;;;;;18.00;52.40;;;;;;10211451;28;94019;-68
2023/04/27 16:19:26;;;;;;;;;;;18.00;52.60;;;;;;10178132;28;93488;-67
2023/04/27 16:24:28;;;;;;;;;;;17.90;52.80;;;;;;10210605;28;93445;-68
2023/04/27 16:29:30;;;;;;;;;;;17.80;52.90;;;;;;10210387;28;93970;-68
2023/04/27 16:34:31;;;;;;;;;;;17.70;53.10;;;;;;10210535;28;94524;-68
2023/04/27 16:39:33;;;;;;;;;;;17.70;53.30;;;;;;10210994;28;92707;-68
2023/04/27 16:44:36;;;;;;;;;;;17.70;53.30;;;;;;10210451;28;93272;-68
2023/04/27 16:49:38;;;;;;;;;;;17.90;53.20;;;;;;10209412;28;93574;-68
2023/04/27 16:54:40;;;;;;;;;;;17.90;53.00;;;;;;10190397;28;96852;-68
2023/04/27 16:59:41;;;;;;;;;;;18.10;52.80;;;;;;10207394;28;93435;-65
2023/04/27 17:04:43;;;;;;;;;;;18.30;52.50;;;;;;10209659;28;94474;-65
2023/04/27 17:09:45;;;;;;;;;;;18.30;52.20;;;;;;10209224;28;94676;-69
2023/04/27 17:14:46;;;;;;;;;;;18.30;52.50;;;;;;10208959;28;94175;-69
2023/04/27 17:19:48;;;;;;;;;;;18.30;52.60;;;;;;10208781;28;93161;-68
2023/04/27 17:24:50;;;;;;;;;;;18.50;53.10;;;;;;10208299;28;94348;-67
2023/04/27 17:29:52;;;;;;;;;;;18.60;52.50;;;;;;10210810;28;91866;-71
2023/04/27 17:34:56;;;;;;;;;;;18.60;52.40;;;;;;10209058;28;95695;-72
2023/04/27 17:39:57;;;;;;;;;;;18.60;52.40;;;;;;10209525;28;94433;-72
2023/04/27 17:44:59;;;;;;;;;;;18.50;52.60;;;;;;10205167;28;95867;-72
2023/04/27 17:50:01;;;;;;;;;;;18.50;52.70;;;;;;10207488;28;94672;-72
2023/04/27 17:55:02;;;;;;;;;;;18.30;53.00;;;;;;10207880;28;93697;-72
2023/04/27 18:00:05;;;;;;;;;;;18.20;53.30;;;;;;10206757;28;93562;-72
2023/04/27 18:05:06;;;;;;;;;;;18.10;53.50;;;;;;10209728;28;94407;-68
2023/04/27 18:10:08;;;;;;;;;;;18.10;53.70;;;;;;10206579;28;93516;-68
2023/04/27 18:15:10;;;;;;;;;;;18.10;53.80;;;;;;10207946;28;94484;-68
2023/04/27 18:20:14;;;;;;;;;;;18.00;54.00;;;;;;10208434;28;93013;-68
2023/04/27 18:25:15;;;;;;;;;;;18.00;54.20;;;;;;10207841;28;94582;-71
2023/04/27 18:30:17;;;;;;;;;;;18.00;54.20;;;;;;10206979;28;93433;-71
2023/04/27 18:35:19;;;;;;;;;;;18.10;54.20;;;;;;10204329;28;96954;-71
2023/04/27 18:40:21;;;;;;;;;;;18.20;54.00;;;;;;10206269;28;93613;-71
2023/04/27 18:45:23;;;;;;;;;;;18.20;54.00;;;;;;10207768;28;94013;-70
2023/04/27 18:50:25;;;;;;;;;;;18.20;54.00;;;;;;10189376;28;94451;-71
2023/04/27 18:55:27;;;;;;;;;;;18.20;54.00;;;;;;10172819;28;93598;-70
2023/04/27 19:00:29;;;;;;;;;;;18.10;54.00;;;;;;10204950;28;93309;-70
2023/04/27 19:05:31;;;;;;;;;;;18.10;54.20;;;;;;10205586;28;93422;-70
2023/04/27 19:10:33;;;;;;;;;;;18.10;54.40;;;;;;10206973;28;93885;-72
2023/04/27 19:15:35;;;;;;;;;;;18.00;54.50;;;;;;10204976;28;94418;-71
2023/04/27 19:20:37;;;;;;;;;;;18.00;54.60;;;;;;10205276;28;92744;-71
2023/04/27 19:25:39;;;;;;;;;;;18.10;54.60;;;;;;10192056;28;96088;-70
2023/04/27 19:30:41;;;;;;;;;;;18.10;54.60;;;;;;10212211;28;93537;-70
2023/04/27 19:35:43;;;;;;;;;;;18.00;54.60;;;;;;10212101;28;93675;-71
2023/04/27 19:40:45;;;;;;;;;;;18.00;54.90;;;;;;10211162;28;93834;-70
2023/04/27 19:45:50;;;;;;;;;;;17.90;54.90;;;;;;10194388;28;94509;-70
2023/04/27 19:50:53;;;;;;;;;;;17.90;55.10;;;;;;10210185;28;94485;-70
2023/04/27 19:55:55;;;;;;;;;;;17.80;55.20;;;;;;10195225;28;93541;-70
2023/04/27 20:01:00;;;;;;;;;;;17.80;55.30;;;;;;10195180;28;93813;-70
2023/04/27 20:06:01;;;;;;;;;;;17.80;55.50;;;;;;10211468;28;94063;-70
2023/04/27 20:11:04;;;;;;;;;;;17.70;55.60;;;;;;10211568;28;93228;-70
2023/04/27 20:16:07;;;;;;;;;;;17.70;56.80;;;;;;10209633;28;95811;-70
2023/04/27 20:21:09;;;;;;;;;;;17.60;55.80;;;;;;10212215;28;93381;-70
2023/04/27 20:26:11;;;;;;;;;;;17.60;55.80;;;;;;10210826;28;94415;-70
2023/04/27 20:31:14;;;;;;;;;;;17.60;55.90;;;;;;10210738;28;94296;-70
2023/04/27 20:36:16;;;;;;;;;;;17.50;55.90;;;;;;10209732;28;93801;-71
2023/04/27 20:41:21;;;;;;;;;;;17.50;56.00;;;;;;10192821;28;93430;-71
2023/04/27 20:46:22;;;;;;;;;;;17.50;56.10;;;;;;10208934;28;93529;-70
2023/04/27 20:51:25;;;;;;;;;;;17.50;56.20;;;;;;10209523;28;95106;-69
2023/04/27 20:56:29;;;;;;;;;;;17.40;56.20;;;;;;10192267;28;94088;-70
2023/04/27 21:01:31;;;;;;;;;;;17.40;56.20;;;;;;10209219;28;93546;-70
2023/04/27 21:06:33;;;;;;;;;;;17.40;57.30;;;;;;10207207;28;96883;-70
2023/04/27 21:11:35;;;;;;;;;;;17.40;56.50;;;;;;10208039;28;94279;-70
2023/04/27 21:16:37;;;;;;;;;;;17.30;56.50;;;;;;10209170;28;93273;-70
2023/04/27 21:21:38;;;;;;;;;;;17.30;56.60;;;;;;10191769;28;93608;-70
2023/04/27 21:26:41;;;;;;;;;;;17.30;56.70;;;;;;10208187;28;93540;-70
2023/04/27 21:31:42;;;;;;;;;;;17.30;56.70;;;;;;10208909;28;93915;-71
2023/04/27 21:36:44;;;;;;;;;;;17.20;56.70;;;;;;10208297;28;93261;-71
2023/04/27 21:41:45;;;;;;;;;;;17.20;56.80;;;;;;10208383;28;92665;-70
2023/04/27 21:46:47;;;;;;;;;;;17.20;56.90;;;;;;10190407;28;93135;-70
2023/04/27 21:51:49;;;;;;;;;;;17.20;56.90;;;;;;10207766;28;93480;-70
2023/04/27 21:56:51;;;;;;;;;;;17.20;57.00;;;;;;10205040;28;95659;-70
2023/04/27 22:01:54;;;;;;;;;;;17.20;57.00;;;;;;10208846;28;94069;-71
2023/04/27 22:06:56;;;;;;;;;;;17.20;57.10;;;;;;10207323;28;95014;-70
2023/04/27 22:11:58;;;;;;;;;;;17.20;57.20;;;;;;10207295;28;92912;-70
2023/04/27 22:17:00;;;;;;;;;;;17.20;57.10;;;;;;10206991;28;93476;-71
2023/04/27 22:22:02;;;;;;;;;;;17.20;57.20;;;;;;10206569;28;93428;-71
2023/04/27 22:27:04;;;;;;;;;;;17.20;57.20;;;;;;10207807;28;96247;-71
2023/04/27 22:32:06;;;;;;;;;;;17.20;57.20;;;;;;10189522;28;93128;-71
2023/04/27 22:37:08;;;;;;;;;;;17.20;57.20;;;;;;10206491;28;93883;-71
2023/04/27 22:42:10;;;;;;;;;;;17.20;57.30;;;;;;10206596;28;94133;-71
2023/04/27 22:47:11;;;;;;;;;;;17.20;57.20;;;;;;10202401;28;94821;-71
2023/04/27 22:52:15;;;;;;;;;;;17.20;57.30;;;;;;10206045;28;93556;-69
2023/04/27 22:57:16;;;;;;;;;;;17.20;57.40;;;;;;10207994;28;93823;-69
2023/04/27 23:02:18;;;;;;;;;;;17.20;57.30;;;;;;10213839;28;93880;-69
2023/04/27 23:07:22;;;;;;;;;;;17.10;57.10;;;;;;10213594;28;93541;-69
2023/04/27 23:12:25;;;;;;;;;;;17.10;57.10;;;;;;10213786;28;93086;-70
2023/04/27 23:17:30;;;;;;;;;;;17.10;57.00;;;;;;10213007;28;93491;-70
2023/04/27 23:22:33;;;;;;;;;;;17.10;57.00;;;;;;10213059;28;92381;-70
2023/04/27 23:27:35;;;;;;;;;;;17.10;57.00;;;;;;10214000;28;94004;-70
2023/04/27 23:32:37;;;;;;;;;;;17.00;56.90;;;;;;10211824;28;94365;-71
2023/04/27 23:37:39;;;;;;;;;;;17.00;56.80;;;;;;10210696;28;96838;-71
2023/04/27 23:42:40;;;;;;;;;;;17.00;56.80;;;;;;10211533;28;94567;-70
2023/04/27 23:47:42;;;;;;;;;;;17.00;56.80;;;;;;10210252;28;93648;-70
2023/04/27 23:52:44;;;;;;;;;;;17.00;56.70;;;;;;10194283;28;94702;-69
2023/04/27 23:57:46;;;;;;;;;;;16.90;56.50;;;;;;10211334;28;93688;-70
